sensor_id;sensor_type;location;lat;lon;timestamp;pressure;altitude;pressure_sealevel;temperature;humidity
34177;BME280;20450;49.074;9.158;2023-02-10T00:01:21;101740.59;;;-1.51;79.27
34177;BME280;20450;49.074;9.158;2023-02-10T00:03:50;101729.09;;;-1.50;80.58
34177;BME280;20450;49.074;9.158;2023-02-10T00:06:18;101731.13;;;-1.55;80.96
34177;BME280;20450;49.074;9.158;2023-02-10T00:08:47;101720.19;;;-1.65;81.11
34177;BME280;20450;49.074;9.158;2023-02-10T00:11:16;101724.38;;;-1.76;81.97
34177;BME280;20450;49.074;9.158;2023-02-10T00:13:45;101726.16;;;-1.77;81.42
34177;BME280;20450;49.074;9.158;2023-02-10T00:16:14;101721.75;;;-1.76;80.76
34177;BME280;20450;49.074;9.158;2023-02-10T00:18:42;101723.09;;;-1.69;80.36
34177;BME280;20450;49.074;9.158;2023-02-10T00:21:12;101720.44;;;-1.69;79.82
34177;BME280;20450;49.074;9.158;2023-02-10T00:23:40;101726.88;;;-1.89;79.75
34177;BME280;20450;49.074;9.158;2023-02-10T00:26:10;101728.25;;;-1.82;79.97
34177;BME280;20450;49.074;9.158;2023-02-10T00:28:41;101745.75;;;-1.79;79.41
34177;BME280;20450;49.074;9.158;2023-02-10T00:31:12;101751.66;;;-1.74;80.50
34177;BME280;20450;49.074;9.158;2023-02-10T00:33:41;101743.09;;;-1.64;80.14
34177;BME280;20450;49.074;9.158;2023-02-10T00:36:09;101755.84;;;-1.55;79.80
34177;BME280;20450;49.074;9.158;2023-02-10T00:38:38;101751.97;;;-1.49;79.45
34177;BME280;20450;49.074;9.158;2023-02-10T00:41:09;101757.78;;;-1.43;79.18
34177;BME280;20450;49.074;9.158;2023-02-10T00:43:37;101762.22;;;-1.43;79.17
34177;BME280;20450;49.074;9.158;2023-02-10T00:46:06;101761.28;;;-1.42;79.17
34177;BME280;20450;49.074;9.158;2023-02-10T00:48:35;101767.28;;;-1.39;79.47
34177;BME280;20450;49.074;9.158;2023-02-10T00:51:51;101764.34;;;-1.50;81.31
34177;BME280;20450;49.074;9.158;2023-02-10T00:54:30;101766.00;;;-1.63;81.04
34177;BME280;20450;49.074;9.158;2023-02-10T00:56:56;101760.69;;;-1.63;80.82
34177;BME280;20450;49.074;9.158;2023-02-10T00:59:23;101761.66;;;-1.64;79.90
34177;BME280;20450;49.074;9.158;2023-02-10T01:01:50;101762.91;;;-1.71;79.65
34177;BME280;20450;49.074;9.158;2023-02-10T01:04:19;101768.31;;;-1.88;81.38
34177;BME280;20450;49.074;9.158;2023-02-10T01:06:46;101773.00;;;-1.93;81.55
34177;BME280;20450;49.074;9.158;2023-02-10T01:09:12;101778.88;;;-2.04;81.42
34177;BME280;20450;49.074;9.158;2023-02-10T01:11:40;101780.69;;;-2.04;81.63
34177;BME280;20450;49.074;9.158;2023-02-10T01:14:08;101781.19;;;-1.98;81.53
34177;BME280;20450;49.074;9.158;2023-02-10T01:16:35;101773.84;;;-1.92;81.11
34177;BME280;20450;49.074;9.158;2023-02-10T01:19:04;101778.44;;;-1.96;81.03
34177;BME280;20450;49.074;9.158;2023-02-10T01:21:33;101779.81;;;-2.05;81.60
34177;BME280;20450;49.074;9.158;2023-02-10T01:24:00;101779.53;;;-2.16;81.66
34177;BME280;20450;49.074;9.158;2023-02-10T01:26:30;101793.13;;;-2.06;81.22
34177;BME280;20450;49.074;9.158;2023-02-10T01:28:57;101789.06;;;-1.96;81.40
34177;BME280;20450;49.074;9.158;2023-02-10T01:31:24;101792.72;;;-1.83;80.77
34177;BME280;20450;49.074;9.158;2023-02-10T01:33:53;101791.53;;;-1.93;80.46
34177;BME280;20450;49.074;9.158;2023-02-10T01:36:23;101795.22;;;-1.80;81.11
34177;BME280;20450;49.074;9.158;2023-02-10T01:38:53;101792.16;;;-1.88;82.21
34177;BME280;20450;49.074;9.158;2023-02-10T01:41:21;101803.16;;;-1.95;83.36
34177;BME280;20450;49.074;9.158;2023-02-10T01:43:54;101796.03;;;-2.11;83.72
34177;BME280;20450;49.074;9.158;2023-02-10T01:46:25;101792.97;;;-2.03;84.10
34177;BME280;20450;49.074;9.158;2023-02-10T01:48:55;101798.19;;;-2.02;83.06
34177;BME280;20450;49.074;9.158;2023-02-10T01:51:35;101797.06;;;-2.13;83.59
34177;BME280;20450;49.074;9.158;2023-02-10T01:54:08;101796.50;;;-2.03;82.90
34177;BME280;20450;49.074;9.158;2023-02-10T01:56:39;101803.22;;;-1.97;82.90
34177;BME280;20450;49.074;9.158;2023-02-10T01:59:07;101805.31;;;-1.86;83.15
34177;BME280;20450;49.074;9.158;2023-02-10T02:01:35;101804.81;;;-1.77;82.68
34177;BME280;20450;49.074;9.158;2023-02-10T02:04:03;101806.34;;;-1.73;82.25
34177;BME280;20450;49.074;9.158;2023-02-10T02:06:34;101806.41;;;-1.75;82.00
34177;BME280;20450;49.074;9.158;2023-02-10T02:09:02;101804.44;;;-1.87;82.68
34177;BME280;20450;49.074;9.158;2023-02-10T02:11:40;101813.38;;;-2.05;83.47
34177;BME280;20450;49.074;9.158;2023-02-10T02:14:28;101811.66;;;-2.06;84.16
34177;BME280;20450;49.074;9.158;2023-02-10T02:17:07;101817.59;;;-2.01;84.01
34177;BME280;20450;49.074;9.158;2023-02-10T02:20:01;101810.41;;;-1.99;84.15
34177;BME280;20450;49.074;9.158;2023-02-10T02:22:55;101811.19;;;-1.97;84.07
34177;BME280;20450;49.074;9.158;2023-02-10T02:25:47;101813.28;;;-2.04;83.46
34177;BME280;20450;49.074;9.158;2023-02-10T02:28:37;101816.81;;;-2.03;83.11
34177;BME280;20450;49.074;9.158;2023-02-10T02:31:50;101816.34;;;-2.11;82.58
34177;BME280;20450;49.074;9.158;2023-02-10T02:34:30;101818.34;;;-1.99;81.98
34177;BME280;20450;49.074;9.158;2023-02-10T02:37:09;101817.75;;;-2.04;80.94
34177;BME280;20450;49.074;9.158;2023-02-10T02:39:42;101817.50;;;-1.99;80.57
34177;BME280;20450;49.074;9.158;2023-02-10T02:42:15;101823.94;;;-1.88;80.38
34177;BME280;20450;49.074;9.158;2023-02-10T02:44:46;101818.13;;;-1.79;79.49
34177;BME280;20450;49.074;9.158;2023-02-10T02:47:44;101806.50;;;-1.76;78.33
34177;BME280;20450;49.074;9.158;2023-02-10T02:50:32;101813.13;;;-2.01;79.59
34177;BME280;20450;49.074;9.158;2023-02-10T02:53:16;101813.13;;;-2.01;80.66
34177;BME280;20450;49.074;9.158;2023-02-10T02:56:00;101815.03;;;-2.03;81.13
34177;BME280;20450;49.074;9.158;2023-02-10T02:58:44;101809.44;;;-2.14;80.95
34177;BME280;20450;49.074;9.158;2023-02-10T03:01:31;101821.84;;;-2.31;81.85
34177;BME280;20450;49.074;9.158;2023-02-10T03:04:03;101825.72;;;-2.21;81.34
34177;BME280;20450;49.074;9.158;2023-02-10T03:06:32;101829.00;;;-2.16;80.31
34177;BME280;20450;49.074;9.158;2023-02-10T03:08:59;101829.00;;;-2.16;80.35
34177;BME280;20450;49.074;9.158;2023-02-10T03:11:26;101827.09;;;-2.14;80.59
34177;BME280;20450;49.074;9.158;2023-02-10T03:13:53;101826.78;;;-2.08;79.84
34177;BME280;20450;49.074;9.158;2023-02-10T03:16:20;101827.19;;;-2.16;80.28
34177;BME280;20450;49.074;9.158;2023-02-10T03:18:47;101831.81;;;-2.36;81.60
34177;BME280;20450;49.074;9.158;2023-02-10T03:21:15;101829.00;;;-2.33;81.31
34177;BME280;20450;49.074;9.158;2023-02-10T03:23:42;101830.19;;;-2.39;81.58
34177;BME280;20450;49.074;9.158;2023-02-10T03:26:10;101826.19;;;-2.30;81.30
34177;BME280;20450;49.074;9.158;2023-02-10T03:28:37;101836.47;;;-2.24;80.61
34177;BME280;20450;49.074;9.158;2023-02-10T03:31:06;101842.91;;;-2.13;79.88
34177;BME280;20450;49.074;9.158;2023-02-10T03:33:35;101842.41;;;-2.04;79.28
34177;BME280;20450;49.074;9.158;2023-02-10T03:36:03;101843.81;;;-1.96;77.87
34177;BME280;20450;49.074;9.158;2023-02-10T03:38:33;101839.53;;;-1.99;78.07
34177;BME280;20450;49.074;9.158;2023-02-10T03:41:14;101844.88;;;-2.16;78.37
34177;BME280;20450;49.074;9.158;2023-02-10T03:43:42;101852.16;;;-2.54;80.87
34177;BME280;20450;49.074;9.158;2023-02-10T03:46:16;101843.66;;;-2.60;81.53
34177;BME280;20450;49.074;9.158;2023-02-10T03:48:43;101846.47;;;-2.63;81.88
34177;BME280;20450;49.074;9.158;2023-02-10T03:51:10;101853.00;;;-2.53;81.29
34177;BME280;20450;49.074;9.158;2023-02-10T03:53:39;101856.19;;;-2.64;83.04
34177;BME280;20450;49.074;9.158;2023-02-10T03:56:07;101866.31;;;-2.72;84.73
34177;BME280;20450;49.074;9.158;2023-02-10T03:58:34;101853.94;;;-2.71;84.39
34177;BME280;20450;49.074;9.158;2023-02-10T04:01:08;101850.59;;;-2.75;82.65
34177;BME280;20450;49.074;9.158;2023-02-10T04:03:36;101854.69;;;-2.69;82.89
34177;BME280;20450;49.074;9.158;2023-02-10T04:06:04;101851.16;;;-2.68;82.67
34177;BME280;20450;49.074;9.158;2023-02-10T04:08:31;101851.50;;;-2.59;82.42
34177;BME280;20450;49.074;9.158;2023-02-10T04:11:09;101848.31;;;-2.48;81.44
34177;BME280;20450;49.074;9.158;2023-02-10T04:13:36;101847.94;;;-2.41;81.05
34177;BME280;20450;49.074;9.158;2023-02-10T04:16:05;101850.50;;;-2.39;80.49
34177;BME280;20450;49.074;9.158;2023-02-10T04:18:33;101852.06;;;-2.35;81.12
34177;BME280;20450;49.074;9.158;2023-02-10T04:21:01;101855.41;;;-2.32;81.35
34177;BME280;20450;49.074;9.158;2023-02-10T04:23:29;101857.44;;;-2.37;81.87
34177;BME280;20450;49.074;9.158;2023-02-10T04:25:57;101850.56;;;-2.41;82.52
34177;BME280;20450;49.074;9.158;2023-02-10T04:28:27;101855.19;;;-2.44;81.75
34177;BME280;20450;49.074;9.158;2023-02-10T04:30:58;101860.63;;;-2.47;82.02
34177;BME280;20450;49.074;9.158;2023-02-10T04:33:26;101863.44;;;-2.67;83.76
34177;BME280;20450;49.074;9.158;2023-02-10T04:35:54;101863.16;;;-2.80;84.38
34177;BME280;20450;49.074;9.158;2023-02-10T04:38:22;101861.47;;;-2.81;85.21
34177;BME280;20450;49.074;9.158;2023-02-10T04:40:50;101859.13;;;-2.87;85.59
34177;BME280;20450;49.074;9.158;2023-02-10T04:43:17;101864.78;;;-2.94;86.21
34177;BME280;20450;49.074;9.158;2023-02-10T04:45:46;101873.44;;;-2.91;86.39
34177;BME280;20450;49.074;9.158;2023-02-10T04:48:13;101869.47;;;-2.82;86.90
34177;BME280;20450;49.074;9.158;2023-02-10T04:50:41;101866.38;;;-2.73;85.80
34177;BME280;20450;49.074;9.158;2023-02-10T04:53:09;101871.84;;;-2.59;84.85
34177;BME280;20450;49.074;9.158;2023-02-10T04:55:36;101876.81;;;-2.53;83.55
34177;BME280;20450;49.074;9.158;2023-02-10T04:58:04;101880.06;;;-2.48;83.37
34177;BME280;20450;49.074;9.158;2023-02-10T05:00:31;101891.38;;;-2.45;83.37
34177;BME280;20450;49.074;9.158;2023-02-10T05:02:59;101888.50;;;-2.40;82.67
34177;BME280;20450;49.074;9.158;2023-02-10T05:05:26;101881.19;;;-2.35;82.05
34177;BME280;20450;49.074;9.158;2023-02-10T05:07:54;101890.75;;;-2.33;81.73
34177;BME280;20450;49.074;9.158;2023-02-10T05:10:21;101880.75;;;-2.28;81.24
34177;BME280;20450;49.074;9.158;2023-02-10T05:12:48;101885.81;;;-2.23;80.88
34177;BME280;20450;49.074;9.158;2023-02-10T05:15:15;101894.69;;;-2.24;80.74
34177;BME280;20450;49.074;9.158;2023-02-10T05:17:42;101893.16;;;-2.28;80.20
34177;BME280;20450;49.074;9.158;2023-02-10T05:20:11;101895.97;;;-2.31;80.29
34177;BME280;20450;49.074;9.158;2023-02-10T05:22:39;101899.00;;;-2.39;80.87
34177;BME280;20450;49.074;9.158;2023-02-10T05:25:07;101904.91;;;-2.34;80.52
34177;BME280;20450;49.074;9.158;2023-02-10T05:27:35;101906.47;;;-2.30;80.34
34177;BME280;20450;49.074;9.158;2023-02-10T05:30:04;101910.97;;;-2.32;80.55
34177;BME280;20450;49.074;9.158;2023-02-10T05:32:33;101906.06;;;-2.39;80.49
34177;BME280;20450;49.074;9.158;2023-02-10T05:35:00;101917.19;;;-2.50;80.25
34177;BME280;20450;49.074;9.158;2023-02-10T05:37:29;101905.53;;;-2.46;79.41
34177;BME280;20450;49.074;9.158;2023-02-10T05:39:59;101915.03;;;-2.42;78.73
34177;BME280;20450;49.074;9.158;2023-02-10T05:42:26;101913.09;;;-2.38;77.90
34177;BME280;20450;49.074;9.158;2023-02-10T05:44:54;101912.22;;;-2.39;77.57
34177;BME280;20450;49.074;9.158;2023-02-10T05:47:21;101920.25;;;-2.40;77.34
34177;BME280;20450;49.074;9.158;2023-02-10T05:49:48;101918.69;;;-2.44;77.84
34177;BME280;20450;49.074;9.158;2023-02-10T05:52:15;101918.84;;;-2.47;77.68
34177;BME280;20450;49.074;9.158;2023-02-10T05:54:43;101920.84;;;-2.52;78.92
34177;BME280;20450;49.074;9.158;2023-02-10T05:57:10;101925.66;;;-2.60;78.53
34177;BME280;20450;49.074;9.158;2023-02-10T05:59:37;101922.25;;;-2.62;78.47
34177;BME280;20450;49.074;9.158;2023-02-10T06:02:04;101936.31;;;-2.62;78.09
34177;BME280;20450;49.074;9.158;2023-02-10T06:04:32;101936.25;;;-2.60;78.40
34177;BME280;20450;49.074;9.158;2023-02-10T06:07:55;101948.72;;;-2.62;78.50
34177;BME280;20450;49.074;9.158;2023-02-10T06:10:27;101955.06;;;-2.66;78.35
34177;BME280;20450;49.074;9.158;2023-02-10T06:12:55;101955.19;;;-2.69;79.18
34177;BME280;20450;49.074;9.158;2023-02-10T06:15:55;101964.09;;;-2.70;78.90
34177;BME280;20450;49.074;9.158;2023-02-10T06:18:33;101961.38;;;-2.69;78.25
34177;BME280;20450;49.074;9.158;2023-02-10T06:21:15;101957.69;;;-2.66;77.62
34177;BME280;20450;49.074;9.158;2023-02-10T06:24:33;101974.38;;;-2.64;77.58
34177;BME280;20450;49.074;9.158;2023-02-10T06:27:40;101975.22;;;-2.64;77.15
34177;BME280;20450;49.074;9.158;2023-02-10T06:30:08;101978.63;;;-2.97;77.85
34177;BME280;20450;49.074;9.158;2023-02-10T06:32:36;101979.13;;;-3.26;78.98
34177;BME280;20450;49.074;9.158;2023-02-10T06:35:03;101986.84;;;-3.22;78.76
34177;BME280;20450;49.074;9.158;2023-02-10T06:37:35;101983.00;;;-3.15;79.54
34177;BME280;20450;49.074;9.158;2023-02-10T06:40:02;101981.84;;;-3.09;78.84
34177;BME280;20450;49.074;9.158;2023-02-10T06:42:30;101987.69;;;-3.03;78.71
34177;BME280;20450;49.074;9.158;2023-02-10T06:45:09;101991.69;;;-2.94;78.45
34177;BME280;20450;49.074;9.158;2023-02-10T06:47:37;101983.06;;;-2.98;78.38
34177;BME280;20450;49.074;9.158;2023-02-10T06:50:08;101988.16;;;-2.93;78.31
34177;BME280;20450;49.074;9.158;2023-02-10T06:52:35;101996.69;;;-2.88;77.88
34177;BME280;20450;49.074;9.158;2023-02-10T06:55:03;102001.69;;;-2.82;77.98
34177;BME280;20450;49.074;9.158;2023-02-10T06:57:31;101989.81;;;-2.74;78.15
34177;BME280;20450;49.074;9.158;2023-02-10T06:59:58;101992.34;;;-2.54;77.56
34177;BME280;20450;49.074;9.158;2023-02-10T07:02:26;101994.47;;;-2.26;76.57
34177;BME280;20450;49.074;9.158;2023-02-10T07:04:53;101992.88;;;-1.94;75.51
34177;BME280;20450;49.074;9.158;2023-02-10T07:07:20;101986.69;;;-1.61;74.04
34177;BME280;20450;49.074;9.158;2023-02-10T07:09:47;101991.09;;;-1.44;72.75
34177;BME280;20450;49.074;9.158;2023-02-10T07:12:14;101997.41;;;-1.47;72.83
34177;BME280;20450;49.074;9.158;2023-02-10T07:14:41;102003.03;;;-1.05;72.03
34177;BME280;20450;49.074;9.158;2023-02-10T07:17:08;101992.53;;;-0.60;70.05
34177;BME280;20450;49.074;9.158;2023-02-10T07:19:36;101995.31;;;-0.32;68.38
34177;BME280;20450;49.074;9.158;2023-02-10T07:22:04;101989.66;;;-0.26;67.94
34177;BME280;20450;49.074;9.158;2023-02-10T07:24:31;101996.50;;;-0.37;69.07
34177;BME280;20450;49.074;9.158;2023-02-10T07:26:57;101994.63;;;-0.35;68.91
34177;BME280;20450;49.074;9.158;2023-02-10T07:29:24;101995.69;;;-0.08;68.19
34177;BME280;20450;49.074;9.158;2023-02-10T07:31:52;102002.03;;;0.33;66.85
34177;BME280;20450;49.074;9.158;2023-02-10T07:34:19;101996.66;;;0.91;64.51
34177;BME280;20450;49.074;9.158;2023-02-10T07:36:47;101987.97;;;1.56;62.54
34177;BME280;20450;49.074;9.158;2023-02-10T07:39:14;101983.53;;;2.08;60.21
34177;BME280;20450;49.074;9.158;2023-02-10T07:41:42;101980.56;;;2.50;58.90
34177;BME280;20450;49.074;9.158;2023-02-10T07:44:09;101975.81;;;3.04;58.35
34177;BME280;20450;49.074;9.158;2023-02-10T07:46:35;101967.78;;;3.52;56.42
34177;BME280;20450;49.074;9.158;2023-02-10T07:49:03;101960.63;;;3.87;55.03
34177;BME280;20450;49.074;9.158;2023-02-10T07:51:31;101965.00;;;4.23;53.87
34177;BME280;20450;49.074;9.158;2023-02-10T07:54:04;101974.50;;;4.38;53.82
34177;BME280;20450;49.074;9.158;2023-02-10T07:56:31;101976.13;;;4.96;52.04
34177;BME280;20450;49.074;9.158;2023-02-10T07:58:58;101976.88;;;5.09;51.23
34177;BME280;20450;49.074;9.158;2023-02-10T08:01:25;101967.09;;;5.30;50.18
34177;BME280;20450;49.074;9.158;2023-02-10T08:03:52;101979.56;;;5.62;49.18
34177;BME280;20450;49.074;9.158;2023-02-10T08:06:20;101969.47;;;5.97;48.27
34177;BME280;20450;49.074;9.158;2023-02-10T08:08:48;101972.88;;;5.57;49.72
34177;BME280;20450;49.074;9.158;2023-02-10T08:11:17;101979.66;;;5.83;48.84
34177;BME280;20450;49.074;9.158;2023-02-10T08:13:45;101978.72;;;6.25;47.94
34177;BME280;20450;49.074;9.158;2023-02-10T08:16:46;101979.13;;;6.71;46.45
34177;BME280;20450;49.074;9.158;2023-02-10T08:19:14;101982.16;;;6.78;46.32
34177;BME280;20450;49.074;9.158;2023-02-10T08:21:41;101970.88;;;7.23;45.77
34177;BME280;20450;49.074;9.158;2023-02-10T08:24:08;101970.13;;;7.61;44.83
34177;BME280;20450;49.074;9.158;2023-02-10T08:26:39;101985.84;;;7.16;46.33
34177;BME280;20450;49.074;9.158;2023-02-10T08:29:06;101984.09;;;6.76;47.00
34177;BME280;20450;49.074;9.158;2023-02-10T08:31:33;101983.88;;;6.58;46.85
34177;BME280;20450;49.074;9.158;2023-02-10T08:34:00;101980.59;;;5.93;49.03
34177;BME280;20450;49.074;9.158;2023-02-10T08:36:28;101980.09;;;5.88;49.48
34177;BME280;20450;49.074;9.158;2023-02-10T08:38:56;101982.09;;;4.88;52.42
34177;BME280;20450;49.074;9.158;2023-02-10T08:41:25;101987.47;;;4.77;53.82
34177;BME280;20450;49.074;9.158;2023-02-10T08:43:53;101986.81;;;5.29;51.45
34177;BME280;20450;49.074;9.158;2023-02-10T08:46:21;101988.13;;;3.06;57.32
34177;BME280;20450;49.074;9.158;2023-02-10T08:48:48;101988.13;;;3.89;56.30
34177;BME280;20450;49.074;9.158;2023-02-10T08:51:16;101992.94;;;3.37;58.33
34177;BME280;20450;49.074;9.158;2023-02-10T08:53:43;101992.56;;;4.91;55.12
34177;BME280;20450;49.074;9.158;2023-02-10T08:56:14;101994.41;;;5.02;52.28
34177;BME280;20450;49.074;9.158;2023-02-10T08:58:43;101987.03;;;3.92;56.41
34177;BME280;20450;49.074;9.158;2023-02-10T09:01:14;101992.88;;;3.97;56.43
34177;BME280;20450;49.074;9.158;2023-02-10T09:03:43;101994.56;;;3.98;54.97
34177;BME280;20450;49.074;9.158;2023-02-10T09:06:14;102000.06;;;4.42;56.14
34177;BME280;20450;49.074;9.158;2023-02-10T09:08:42;102006.47;;;5.61;50.78
34177;BME280;20450;49.074;9.158;2023-02-10T09:11:09;102001.69;;;6.18;50.50
34177;BME280;20450;49.074;9.158;2023-02-10T09:13:36;102003.91;;;7.05;48.11
34177;BME280;20450;49.074;9.158;2023-02-10T09:16:03;102004.88;;;7.34;46.72
34177;BME280;20450;49.074;9.158;2023-02-10T09:18:32;102009.50;;;7.22;46.64
34177;BME280;20450;49.074;9.158;2023-02-10T09:21:01;102007.78;;;7.80;45.09
34177;BME280;20450;49.074;9.158;2023-02-10T09:23:28;102009.06;;;8.62;44.48
34177;BME280;20450;49.074;9.158;2023-02-10T09:25:57;102002.84;;;7.94;44.45
34177;BME280;20450;49.074;9.158;2023-02-10T09:28:26;102009.94;;;7.95;45.38
34177;BME280;20450;49.074;9.158;2023-02-10T09:30:53;102013.53;;;6.57;47.25
34177;BME280;20450;49.074;9.158;2023-02-10T09:33:21;102003.28;;;7.80;46.42
34177;BME280;20450;49.074;9.158;2023-02-10T09:35:49;101997.31;;;9.09;43.11
34177;BME280;20450;49.074;9.158;2023-02-10T09:38:17;102010.66;;;6.28;48.17
34177;BME280;20450;49.074;9.158;2023-02-10T09:40:51;102008.50;;;7.23;48.08
34177;BME280;20450;49.074;9.158;2023-02-10T09:43:48;102014.06;;;7.01;47.64
34177;BME280;20450;49.074;9.158;2023-02-10T09:46:30;102003.72;;;8.52;43.70
34177;BME280;20450;49.074;9.158;2023-02-10T09:49:27;102003.28;;;8.19;44.38
34177;BME280;20450;49.074;9.158;2023-02-10T09:52:23;101999.31;;;7.94;45.51
34177;BME280;20450;49.074;9.158;2023-02-10T09:54:56;101998.75;;;8.09;44.43
34177;BME280;20450;49.074;9.158;2023-02-10T09:57:32;102000.31;;;8.60;43.83
34177;BME280;20450;49.074;9.158;2023-02-10T10:00:15;101993.66;;;10.17;40.18
34177;BME280;20450;49.074;9.158;2023-02-10T10:02:52;102007.25;;;10.68;38.71
34177;BME280;20450;49.074;9.158;2023-02-10T10:05:30;102007.50;;;10.57;38.62
34177;BME280;20450;49.074;9.158;2023-02-10T10:08:17;102014.38;;;9.81;39.48
34177;BME280;20450;49.074;9.158;2023-02-10T10:10:51;102014.59;;;10.15;39.36
34177;BME280;20450;49.074;9.158;2023-02-10T10:13:28;102009.84;;;11.62;38.19
34177;BME280;20450;49.074;9.158;2023-02-10T10:16:13;102012.66;;;12.82;34.99
34177;BME280;20450;49.074;9.158;2023-02-10T10:18:56;102013.66;;;12.65;34.46
34177;BME280;20450;49.074;9.158;2023-02-10T10:21:42;102016.19;;;12.99;34.11
34177;BME280;20450;49.074;9.158;2023-02-10T10:24:39;102007.44;;;13.35;33.18
34177;BME280;20450;49.074;9.158;2023-02-10T10:27:24;102008.13;;;13.37;33.57
34177;BME280;20450;49.074;9.158;2023-02-10T10:30:06;102003.97;;;13.03;33.47
34177;BME280;20450;49.074;9.158;2023-02-10T10:32:43;102005.84;;;13.02;34.53
34177;BME280;20450;49.074;9.158;2023-02-10T10:35:15;101998.94;;;13.69;33.42
34177;BME280;20450;49.074;9.158;2023-02-10T10:37:45;101995.56;;;12.10;34.88
34177;BME280;20450;49.074;9.158;2023-02-10T10:40:18;101992.56;;;13.15;34.43
34177;BME280;20450;49.074;9.158;2023-02-10T10:42:52;101989.69;;;13.86;33.20
34177;BME280;20450;49.074;9.158;2023-02-10T10:45:25;101998.44;;;14.86;34.10
34177;BME280;20450;49.074;9.158;2023-02-10T10:47:59;101994.41;;;15.91;30.42
34177;BME280;20450;49.074;9.158;2023-02-10T10:50:32;101988.69;;;15.50;30.15
34177;BME280;20450;49.074;9.158;2023-02-10T10:53:13;101989.75;;;15.70;29.91
34177;BME280;20450;49.074;9.158;2023-02-10T10:55:49;101987.66;;;15.87;29.38
34177;BME280;20450;49.074;9.158;2023-02-10T10:58:25;101987.22;;;16.04;29.38
34177;BME280;20450;49.074;9.158;2023-02-10T11:00:59;101990.31;;;14.27;31.50
34177;BME280;20450;49.074;9.158;2023-02-10T11:03:28;101995.22;;;15.12;30.30
34177;BME280;20450;49.074;9.158;2023-02-10T11:06:03;101986.41;;;15.68;29.05
34177;BME280;20450;49.074;9.158;2023-02-10T11:08:36;101985.56;;;14.21;31.41
34177;BME280;20450;49.074;9.158;2023-02-10T11:11:07;101981.53;;;14.54;31.34
34177;BME280;20450;49.074;9.158;2023-02-10T11:13:38;101978.63;;;15.07;29.47
34177;BME280;20450;49.074;9.158;2023-02-10T11:16:15;101987.34;;;15.31;28.84
34177;BME280;20450;49.074;9.158;2023-02-10T11:18:52;101977.22;;;15.54;28.72
34177;BME280;20450;49.074;9.158;2023-02-10T11:21:20;101971.19;;;16.58;27.02
34177;BME280;20450;49.074;9.158;2023-02-10T11:23:58;101964.44;;;16.54;27.45
34177;BME280;20450;49.074;9.158;2023-02-10T11:26:27;101968.53;;;16.22;27.28
34177;BME280;20450;49.074;9.158;2023-02-10T11:28:55;101962.69;;;16.25;27.98
34177;BME280;20450;49.074;9.158;2023-02-10T11:31:29;101969.22;;;16.45;27.18
34177;BME280;20450;49.074;9.158;2023-02-10T11:34:01;101965.94;;;16.14;27.73
34177;BME280;20450;49.074;9.158;2023-02-10T11:36:35;101967.50;;;16.44;27.32
34177;BME280;20450;49.074;9.158;2023-02-10T11:39:16;101951.03;;;16.86;26.70
34177;BME280;20450;49.074;9.158;2023-02-10T11:41:48;101955.56;;;16.73;27.87
34177;BME280;20450;49.074;9.158;2023-02-10T11:53:36;101948.22;;;16.73;27.81
34177;BME280;20450;49.074;9.158;2023-02-10T12:07:15;101939.84;;;16.05;29.01
34177;BME280;20450;49.074;9.158;2023-02-10T12:10:08;101931.97;;;14.95;30.37
34177;BME280;20450;49.074;9.158;2023-02-10T12:12:48;101939.25;;;12.84;33.55
34177;BME280;20450;49.074;9.158;2023-02-10T12:15:33;101938.81;;;12.24;36.19
34177;BME280;20450;49.074;9.158;2023-02-10T12:18:22;101932.69;;;12.14;36.82
34177;BME280;20450;49.074;9.158;2023-02-10T12:21:14;101929.50;;;11.86;37.61
34177;BME280;20450;49.074;9.158;2023-02-10T12:24:16;101926.28;;;11.99;36.52
34177;BME280;20450;49.074;9.158;2023-02-10T12:27:07;101921.72;;;11.34;37.68
34177;BME280;20450;49.074;9.158;2023-02-10T12:29:48;101917.69;;;10.12;40.38
34177;BME280;20450;49.074;9.158;2023-02-10T12:32:52;101914.69;;;8.90;43.63
34177;BME280;20450;49.074;9.158;2023-02-10T12:35:35;101915.44;;;9.54;41.59
34177;BME280;20450;49.074;9.158;2023-02-10T12:38:48;101909.94;;;9.99;42.35
34177;BME280;20450;49.074;9.158;2023-02-10T12:41:59;101916.91;;;10.19;41.36
34177;BME280;20450;49.074;9.158;2023-02-10T12:44:47;101919.50;;;10.54;40.69
34177;BME280;20450;49.074;9.158;2023-02-10T12:47:36;101912.97;;;10.39;40.92
34177;BME280;20450;49.074;9.158;2023-02-10T12:50:35;101907.00;;;10.28;41.48
34177;BME280;20450;49.074;9.158;2023-02-10T12:53:16;101906.34;;;9.90;41.48
34177;BME280;20450;49.074;9.158;2023-02-10T12:56:01;101911.81;;;8.65;44.53
34177;BME280;20450;49.074;9.158;2023-02-10T12:58:38;101910.16;;;9.18;42.77
34177;BME280;20450;49.074;9.158;2023-02-10T13:01:13;101907.84;;;8.59;43.87
34177;BME280;20450;49.074;9.158;2023-02-10T13:03:50;101908.25;;;7.61;46.59
34177;BME280;20450;49.074;9.158;2023-02-10T13:06:31;101908.06;;;7.34;47.51
34177;BME280;20450;49.074;9.158;2023-02-10T13:09:15;101900.66;;;7.07;48.75
34177;BME280;20450;49.074;9.158;2023-02-10T13:12:18;101899.88;;;6.77;50.07
34177;BME280;20450;49.074;9.158;2023-02-10T13:20:55;101896.47;;;6.45;51.44
34177;BME280;20450;49.074;9.158;2023-02-10T13:23:40;101894.59;;;6.66;50.63
34177;BME280;20450;49.074;9.158;2023-02-10T13:26:35;101889.97;;;7.17;49.57
34177;BME280;20450;49.074;9.158;2023-02-10T13:29:25;101886.03;;;7.68;48.83
34177;BME280;20450;49.074;9.158;2023-02-10T13:32:33;101893.09;;;8.07;46.97
34177;BME280;20450;49.074;9.158;2023-02-10T13:39:38;101891.09;;;8.09;46.89
34177;BME280;20450;49.074;9.158;2023-02-10T13:42:24;101887.13;;;7.94;47.45
34177;BME280;20450;49.074;9.158;2023-02-10T13:50:18;101901.72;;;6.76;49.80
34177;BME280;20450;49.074;9.158;2023-02-10T13:53:04;101901.53;;;6.68;50.24
34177;BME280;20450;49.074;9.158;2023-02-10T13:56:29;101884.31;;;6.80;50.56
34177;BME280;20450;49.074;9.158;2023-02-10T14:24:28;101883.03;;;6.75;49.38
34177;BME280;20450;49.074;9.158;2023-02-10T14:27:16;101872.44;;;6.73;50.34
34177;BME280;20450;49.074;9.158;2023-02-10T14:29:51;101872.84;;;6.69;49.70